createdAt,value
2022-12-09T00:02:03.313Z,11.90
2022-12-09T00:04:39.189Z,11.10
2022-12-09T00:07:14.684Z,13.60
2022-12-09T00:10:08.273Z,11.00
2022-12-09T00:12:41.806Z,12.00
2022-12-09T00:15:26.756Z,12.00
2022-12-09T00:18:07.208Z,11.50
2022-12-09T00:20:41.235Z,11.00
2022-12-09T00:23:17.200Z,10.60
2022-12-09T00:25:51.816Z,13.10
2022-12-09T00:28:43.600Z,11.60
2022-12-09T00:31:38.592Z,12.50
2022-12-09T00:34:13.095Z,12.70
2022-12-09T00:37:15.534Z,12.30
2022-12-09T00:39:55.435Z,13.70
2022-12-09T00:42:52.627Z,12.10
2022-12-09T00:45:46.821Z,10.50
2022-12-09T00:48:48.925Z,10.90
2022-12-09T00:51:40.752Z,11.10
2022-12-09T00:54:22.093Z,11.70
2022-12-09T00:57:15.622Z,12.60
2022-12-09T00:59:48.327Z,12.20
2022-12-09T01:02:40.537Z,11.50
2022-12-09T01:05:35.426Z,12.90
2022-12-09T01:08:09.338Z,12.60
2022-12-09T01:11:01.123Z,11.50
2022-12-09T01:14:08.321Z,12.20
2022-12-09T01:17:07.089Z,11.40
2022-12-09T01:20:01.226Z,11.60
2022-12-09T01:22:55.594Z,11.90
2022-12-09T01:25:55.005Z,11.40
2022-12-09T01:28:52.845Z,11.10
2022-12-09T01:31:30.359Z,12.20
2022-12-09T01:34:24.062Z,10.90
2022-12-09T01:37:22.886Z,12.70
2022-12-09T01:40:19.113Z,10.70
2022-12-09T01:42:55.406Z,9.90
2022-12-09T01:45:49.857Z,8.50
2022-12-09T01:48:23.936Z,9.00
2022-12-09T01:51:01.884Z,8.60
2022-12-09T01:53:49.003Z,9.90
2022-12-09T01:56:25.076Z,9.80
2022-12-09T01:59:11.222Z,10.40
2022-12-09T02:02:06.547Z,9.00
2022-12-09T02:04:58.148Z,9.50
2022-12-09T02:07:56.773Z,7.80
2022-12-09T02:10:58.617Z,9.30
2022-12-09T02:13:59.287Z,8.30
2022-12-09T02:17:09.332Z,7.50
2022-12-09T02:20:13.317Z,8.40
2022-12-09T02:22:59.025Z,8.80
2022-12-09T02:25:37.781Z,9.50
2022-12-09T02:28:35.236Z,9.10
2022-12-09T02:31:46.899Z,9.20
2022-12-09T02:34:44.239Z,10.20
2022-12-09T02:37:41.628Z,10.00
2022-12-09T02:40:42.390Z,10.60
2022-12-09T02:43:48.184Z,9.60
2022-12-09T02:46:45.790Z,9.80
2022-12-09T02:49:41.563Z,9.30
2022-12-09T02:52:35.873Z,9.70
2022-12-09T02:55:27.297Z,11.60
2022-12-09T02:58:18.965Z,9.20
2022-12-09T03:00:59.214Z,9.30
2022-12-09T03:03:52.766Z,8.60
2022-12-09T03:10:06.490Z,9.50
2022-12-09T03:12:41.218Z,9.60
2022-12-09T03:15:37.209Z,10.10
2022-12-09T03:18:34.720Z,9.70
2022-12-09T03:21:28.647Z,8.40
2022-12-09T03:24:24.998Z,9.50
2022-12-09T03:27:24.154Z,11.10
2022-12-09T03:30:00.332Z,8.80
2022-12-09T03:32:59.009Z,11.00
2022-12-09T03:36:03.330Z,12.40
2022-12-09T03:38:55.613Z,10.20
2022-12-09T03:41:33.477Z,9.00
2022-12-09T03:44:30.090Z,9.50
2022-12-09T03:47:23.671Z,8.80
2022-12-09T03:50:15.756Z,8.40
2022-12-09T03:52:51.762Z,9.30
2022-12-09T03:55:54.356Z,8.70
2022-12-09T03:58:49.093Z,8.90
2022-12-09T04:01:24.451Z,7.70
2022-12-09T04:03:58.345Z,8.90
2022-12-09T04:06:35.105Z,10.20
2022-12-09T04:09:34.819Z,10.70
2022-12-09T04:12:29.851Z,10.60
2022-12-09T04:15:21.032Z,9.10
2022-12-09T04:18:24.913Z,9.30
2022-12-09T04:21:00.249Z,10.20
2022-12-09T04:23:35.623Z,8.30
2022-12-09T04:26:14.982Z,9.50
2022-12-09T04:28:48.129Z,10.30
2022-12-09T04:31:46.349Z,10.70
2022-12-09T04:34:38.365Z,11.20
2022-12-09T04:37:25.174Z,10.70
2022-12-09T04:40:23.767Z,10.10
2022-12-09T04:43:18.220Z,12.70
2022-12-09T04:45:50.865Z,12.20
2022-12-09T04:48:42.536Z,13.00
2022-12-09T04:51:22.177Z,12.50
2022-12-09T04:54:20.565Z,14.60
2022-12-09T04:57:31.631Z,13.90
2022-12-09T05:00:02.494Z,13.60
2022-12-09T05:02:56.136Z,15.00
2022-12-09T05:05:29.933Z,15.70
2022-12-09T05:08:02.327Z,12.20
2022-12-09T05:10:43.753Z,13.20
2022-12-09T05:13:14.627Z,12.50
2022-12-09T05:15:54.596Z,11.70
2022-12-09T05:18:47.344Z,12.10
2022-12-09T05:21:23.120Z,11.60
2022-12-09T05:23:56.317Z,12.70
2022-12-09T05:26:49.002Z,12.90
2022-12-09T05:29:23.853Z,12.30
2022-12-09T05:31:54.797Z,15.10
2022-12-09T05:34:29.175Z,13.40
2022-12-09T05:37:03.714Z,13.00
2022-12-09T05:40:06.452Z,12.60
2022-12-09T05:42:57.409Z,13.80
2022-12-09T05:46:02.747Z,16.10
2022-12-09T05:48:36.885Z,18.00
2022-12-09T05:51:15.459Z,15.00
2022-12-09T05:56:48.873Z,13.70
2022-12-09T05:59:23.766Z,17.10
2022-12-09T06:02:26.205Z,16.80
2022-12-09T06:05:21.047Z,16.40
2022-12-09T06:07:52.512Z,11.40
2022-12-09T06:10:46.238Z,11.40
2022-12-09T06:13:45.922Z,11.20
2022-12-09T06:16:21.474Z,12.60
2022-12-09T06:19:14.668Z,12.30
2022-12-09T06:21:47.251Z,11.70
2022-12-09T06:24:42.722Z,12.10
2022-12-09T06:27:39.006Z,12.90
2022-12-09T06:30:14.999Z,12.60
2022-12-09T06:32:45.978Z,11.80
2022-12-09T06:35:17.186Z,12.70
2022-12-09T06:37:48.183Z,13.40
2022-12-09T06:40:18.771Z,13.00
2022-12-09T06:42:50.592Z,13.00
2022-12-09T06:45:21.775Z,11.50
2022-12-09T06:47:52.325Z,10.70
2022-12-09T06:50:23.697Z,12.60
2022-12-09T06:52:54.513Z,14.30
2022-12-09T06:55:25.495Z,13.90
2022-12-09T06:57:56.326Z,15.30
2022-12-09T07:00:27.525Z,14.90
2022-12-09T07:02:58.519Z,16.10
2022-12-09T07:05:29.792Z,15.30
2022-12-09T07:08:01.345Z,16.40
2022-12-09T07:10:32.812Z,13.40
2022-12-09T07:13:04.234Z,14.60
2022-12-09T07:15:35.081Z,17.40
2022-12-09T07:18:06.168Z,12.10
2022-12-09T07:20:36.783Z,13.20
2022-12-09T07:23:07.177Z,11.30
2022-12-09T07:25:37.881Z,13.20
2022-12-09T07:28:08.551Z,12.70
2022-12-09T07:30:40.861Z,12.20
2022-12-09T07:33:11.523Z,12.80
2022-12-09T07:35:42.452Z,13.90
2022-12-09T07:38:13.372Z,15.60
2022-12-09T07:40:44.333Z,16.90
2022-12-09T07:43:16.235Z,13.70
2022-12-09T07:45:47.148Z,13.20
2022-12-09T07:48:17.830Z,12.40
2022-12-09T07:50:48.529Z,15.30
2022-12-09T07:53:19.380Z,16.90
2022-12-09T07:55:50.073Z,15.10
2022-12-09T07:58:20.938Z,14.90
2022-12-09T08:00:51.414Z,12.30
2022-12-09T08:03:22.327Z,14.40
2022-12-09T08:05:54.680Z,14.40
2022-12-09T08:08:27.710Z,13.50
2022-12-09T08:11:09.470Z,15.40
2022-12-09T08:13:42.397Z,16.50
2022-12-09T08:16:15.309Z,17.40
2022-12-09T08:18:48.826Z,16.60
2022-12-09T08:21:21.400Z,16.10
2022-12-09T08:23:52.948Z,15.90
2022-12-09T08:26:25.481Z,14.30
2022-12-09T08:28:56.554Z,15.20
2022-12-09T08:31:41.686Z,13.50
2022-12-09T08:34:13.182Z,14.00
2022-12-09T08:36:45.118Z,15.20
2022-12-09T08:39:16.922Z,16.90
2022-12-09T08:41:49.039Z,17.00
2022-12-09T08:44:22.223Z,19.00
2022-12-09T08:46:54.558Z,15.60
2022-12-09T08:49:25.213Z,16.10
2022-12-09T08:51:56.222Z,16.20
2022-12-09T08:54:27.468Z,14.60
2022-12-09T08:56:59.147Z,16.50
2022-12-09T08:59:31.609Z,14.90
2022-12-09T09:02:02.849Z,15.40
2022-12-09T09:04:35.890Z,18.80
2022-12-09T09:07:07.206Z,13.10
2022-12-09T09:09:38.041Z,14.10
2022-12-09T09:12:09.542Z,14.50
2022-12-09T09:14:40.552Z,13.30
2022-12-09T09:17:11.875Z,14.60
2022-12-09T09:19:42.549Z,15.20
2022-12-09T09:22:13.210Z,15.50
2022-12-09T09:24:45.585Z,14.60
2022-12-09T09:27:16.586Z,13.20
2022-12-09T09:29:47.567Z,14.70
2022-12-09T09:32:18.218Z,11.40
2022-12-09T09:34:52.267Z,11.50
2022-12-09T09:37:27.136Z,13.20
2022-12-09T09:39:57.655Z,12.20
2022-12-09T09:42:36.624Z,11.20
2022-12-09T09:45:15.224Z,11.90
2022-12-09T09:47:52.069Z,12.80
2022-12-09T09:50:32.771Z,12.20
2022-12-09T09:53:14.168Z,12.60
2022-12-09T09:55:50.357Z,11.80
2022-12-09T09:58:29.464Z,9.80
2022-12-09T10:01:05.508Z,10.40
2022-12-09T10:03:51.548Z,11.00
2022-12-09T10:06:37.235Z,10.40
2022-12-09T10:09:19.017Z,11.90
2022-12-09T10:11:59.680Z,11.40
2022-12-09T10:14:46.828Z,12.00
2022-12-09T10:17:27.976Z,11.30
2022-12-09T10:20:06.753Z,10.50
2022-12-09T10:22:46.665Z,13.20
2022-12-09T10:25:24.893Z,12.30
2022-12-09T10:28:07.307Z,13.80
2022-12-09T10:30:44.371Z,11.90
2022-12-09T10:33:19.004Z,13.20
2022-12-09T10:35:49.736Z,12.60
2022-12-09T10:38:22.190Z,11.40
2022-12-09T10:41:02.234Z,12.50
2022-12-09T10:43:39.580Z,12.40
2022-12-09T10:46:21.782Z,11.70
2022-12-09T10:49:04.292Z,11.60
2022-12-09T10:51:39.636Z,11.20
2022-12-09T10:54:24.491Z,12.00
2022-12-09T10:57:08.172Z,11.40
2022-12-09T10:59:40.846Z,10.50
2022-12-09T11:02:23.846Z,9.20
2022-12-09T11:04:55.177Z,9.40
2022-12-09T11:07:29.132Z,9.90
2022-12-09T11:10:18.480Z,10.60
2022-12-09T11:12:54.655Z,10.20
2022-12-09T11:15:47.069Z,9.10
2022-12-09T11:18:26.797Z,10.90
2022-12-09T11:21:00.968Z,9.50
2022-12-09T11:23:32.748Z,9.90
2022-12-09T11:26:06.899Z,10.40
2022-12-09T11:28:40.497Z,8.80
2022-12-09T11:31:35.321Z,8.50
2022-12-09T11:34:15.691Z,7.90
2022-12-09T11:36:50.912Z,9.00
2022-12-09T11:39:26.824Z,8.40
2022-12-09T11:42:18.953Z,9.80
2022-12-09T11:44:57.569Z,8.70
2022-12-09T11:47:56.822Z,10.20
2022-12-09T11:50:31.617Z,8.20
2022-12-09T11:53:18.453Z,9.60
2022-12-09T11:55:52.901Z,11.70
2022-12-09T11:58:28.334Z,9.90
2022-12-09T12:01:03.973Z,9.40
2022-12-09T12:03:40.363Z,10.10
2022-12-09T12:06:22.543Z,9.10
2022-12-09T12:08:59.170Z,9.90
2022-12-09T12:11:35.213Z,9.70
2022-12-09T12:14:13.983Z,8.80
2022-12-09T12:16:51.999Z,8.60
2022-12-09T12:19:27.757Z,10.10
2022-12-09T12:22:28.472Z,9.20
2022-12-09T12:25:15.716Z,9.30
2022-12-09T12:28:04.449Z,8.70
2022-12-09T12:30:47.222Z,9.20
2022-12-09T12:34:07.908Z,9.00
2022-12-09T12:36:34.733Z,9.00
2022-12-09T12:39:13.480Z,8.80
2022-12-09T12:41:52.422Z,8.90
2022-12-09T12:44:53.466Z,7.90
2022-12-09T12:47:35.752Z,7.20
2022-12-09T12:50:42.078Z,7.60
2022-12-09T12:53:21.404Z,7.30
2022-12-09T12:56:03.963Z,8.40
2022-12-09T12:58:52.564Z,8.70
2022-12-09T13:01:33.416Z,10.20
2022-12-09T13:04:16.967Z,9.80
2022-12-09T13:06:53.856Z,9.80
2022-12-09T13:09:30.342Z,10.00
2022-12-09T13:12:13.967Z,11.40
2022-12-09T13:14:53.440Z,9.50
2022-12-09T13:17:28.390Z,11.10
2022-12-09T13:20:02.327Z,10.10
2022-12-09T13:22:41.780Z,10.10
2022-12-09T13:25:25.408Z,11.10
2022-12-09T13:28:01.310Z,10.60
2022-12-09T13:30:39.618Z,11.20
2022-12-09T13:33:42.304Z,10.90
2022-12-09T13:36:22.592Z,11.00
2022-12-09T13:38:54.008Z,11.20
2022-12-09T13:42:05.063Z,10.90
2022-12-09T13:44:38.612Z,10.80
2022-12-09T13:47:34.685Z,11.50
2022-12-09T13:50:07.847Z,11.00
2022-12-09T13:52:48.774Z,11.80
2022-12-09T13:55:40.020Z,12.00
2022-12-09T13:58:29.045Z,10.80
2022-12-09T14:01:08.152Z,12.70
2022-12-09T14:03:48.131Z,13.10
2022-12-09T14:06:26.784Z,11.40
2022-12-09T14:09:00.865Z,14.20
2022-12-09T14:11:51.724Z,14.30
2022-12-09T14:14:57.988Z,14.40
2022-12-09T14:18:02.565Z,16.10
2022-12-09T14:20:41.224Z,14.60
2022-12-09T14:23:20.032Z,13.80
2022-12-09T14:26:00.870Z,13.10
2022-12-09T14:28:55.591Z,11.00
2022-12-09T14:32:01.544Z,11.50
2022-12-09T14:34:48.201Z,12.40
2022-12-09T14:37:59.008Z,12.20
2022-12-09T14:40:46.955Z,10.90
2022-12-09T14:43:47.028Z,11.20
2022-12-09T14:46:30.117Z,9.30
2022-12-09T14:49:05.679Z,10.40
2022-12-09T14:51:45.679Z,10.40
2022-12-09T14:54:20.750Z,9.60
2022-12-09T14:56:53.783Z,10.30
2022-12-09T14:59:29.062Z,10.20
2022-12-09T15:02:18.133Z,11.50
2022-12-09T15:04:50.604Z,8.70
2022-12-09T15:07:22.791Z,9.60
2022-12-09T15:09:56.412Z,11.40
2022-12-09T15:12:31.004Z,10.80
2022-12-09T15:15:07.710Z,11.40
2022-12-09T15:17:43.462Z,11.50
2022-12-09T15:20:26.628Z,10.90
2022-12-09T15:23:00.103Z,10.60
2022-12-09T15:25:31.067Z,10.80
2022-12-09T15:28:03.713Z,11.10
2022-12-09T15:30:37.001Z,12.10
2022-12-09T15:33:17.031Z,11.40
2022-12-09T15:35:54.294Z,11.30
2022-12-09T15:38:28.488Z,11.80
2022-12-09T15:41:19.691Z,12.70
2022-12-09T15:43:55.099Z,11.70
2022-12-09T15:46:27.927Z,11.80
2022-12-09T15:49:04.093Z,15.20
2022-12-09T15:51:39.588Z,16.40
2022-12-09T15:54:14.941Z,13.40
2022-12-09T15:56:50.168Z,16.20
2022-12-09T15:59:24.695Z,15.40
2022-12-09T16:02:03.191Z,14.50
2022-12-09T16:04:36.465Z,16.00
2022-12-09T16:07:12.887Z,13.50
2022-12-09T16:10:00.598Z,13.60
2022-12-09T16:12:36.566Z,13.80
2022-12-09T16:15:09.910Z,15.90
2022-12-09T16:17:55.024Z,13.60
2022-12-09T16:20:42.501Z,17.10
2022-12-09T16:23:28.093Z,17.00
2022-12-09T16:26:07.225Z,15.70
2022-12-09T16:28:39.680Z,16.00
2022-12-09T16:31:19.386Z,17.50
2022-12-09T16:33:54.376Z,18.40
2022-12-09T16:36:30.435Z,17.70
2022-12-09T16:39:38.568Z,18.00
2022-12-09T16:42:25.212Z,16.90
2022-12-09T16:45:15.525Z,16.30
2022-12-09T16:47:47.248Z,17.10
2022-12-09T16:50:19.344Z,16.10
2022-12-09T16:52:59.041Z,18.60
2022-12-09T16:55:32.438Z,19.30
2022-12-09T16:58:08.411Z,17.10
2022-12-09T17:00:43.936Z,17.80
2022-12-09T17:03:20.756Z,20.00
2022-12-09T17:05:51.876Z,23.10
2022-12-09T17:08:23.998Z,20.50
2022-12-09T17:10:54.557Z,21.50
2022-12-09T17:13:25.215Z,21.50
2022-12-09T17:16:13.411Z,25.00
2022-12-09T17:18:49.614Z,21.00
2022-12-09T17:21:20.906Z,22.10
2022-12-09T17:23:51.322Z,21.30
2022-12-09T17:26:23.097Z,20.70
2022-12-09T17:29:01.325Z,21.20
2022-12-09T17:31:32.573Z,20.30
2022-12-09T17:34:05.018Z,24.10
2022-12-09T17:36:35.412Z,20.60
2022-12-09T17:39:09.376Z,22.50
2022-12-09T17:41:42.583Z,21.90
2022-12-09T17:44:15.110Z,21.30
2022-12-09T17:46:45.542Z,19.40
2022-12-09T17:49:16.890Z,21.60
2022-12-09T17:51:48.863Z,19.10
2022-12-09T17:54:20.340Z,20.40
2022-12-09T17:56:52.981Z,20.70
2022-12-09T17:59:23.348Z,21.80
2022-12-09T18:01:56.440Z,16.60
2022-12-09T18:04:28.776Z,20.60
2022-12-09T18:06:59.947Z,20.70
2022-12-09T18:09:31.421Z,25.40
2022-12-09T18:12:01.789Z,20.20
2022-12-09T18:14:32.325Z,21.40
2022-12-09T18:17:02.727Z,19.40
2022-12-09T18:19:37.953Z,22.30
2022-12-09T18:22:08.599Z,20.60
2022-12-09T18:24:38.993Z,22.40
2022-12-09T18:27:09.514Z,22.70
2022-12-09T18:29:41.577Z,22.00
2022-12-09T18:32:11.916Z,21.10
2022-12-09T18:34:43.249Z,21.60
2022-12-09T18:37:13.856Z,21.50
2022-12-09T18:39:47.004Z,23.90
2022-12-09T18:42:19.225Z,22.10
2022-12-09T18:44:53.452Z,21.70
2022-12-09T18:47:24.499Z,22.30
2022-12-09T18:49:55.439Z,22.90
2022-12-09T18:52:25.780Z,20.70
2022-12-09T18:54:56.587Z,22.50
2022-12-09T18:57:30.668Z,21.30
2022-12-09T19:00:01.777Z,19.20
2022-12-09T19:02:32.190Z,21.50
2022-12-09T19:05:03.920Z,23.80
2022-12-09T19:07:34.848Z,19.60
2022-12-09T19:10:06.310Z,21.30
2022-12-09T19:12:56.577Z,19.70
2022-12-09T19:15:27.735Z,20.90
2022-12-09T19:17:58.513Z,21.50
2022-12-09T19:20:30.563Z,24.90
2022-12-09T19:23:03.477Z,21.50
2022-12-09T19:25:37.308Z,20.20
2022-12-09T19:28:08.872Z,22.30
2022-12-09T19:30:39.675Z,21.10
2022-12-09T19:33:21.244Z,22.70
2022-12-09T19:35:51.932Z,21.50
2022-12-09T19:38:25.326Z,22.40
2022-12-09T19:41:03.271Z,21.00
2022-12-09T19:43:34.053Z,20.20
2022-12-09T19:46:09.682Z,20.20
2022-12-09T19:48:42.349Z,20.50
2022-12-09T19:51:15.732Z,18.90
2022-12-09T19:53:47.473Z,21.90
2022-12-09T19:56:23.300Z,22.00
2022-12-09T19:58:55.436Z,23.30
2022-12-09T20:01:29.113Z,19.70
2022-12-09T20:04:18.997Z,23.60
2022-12-09T20:06:59.305Z,22.00
2022-12-09T20:09:34.099Z,24.70
2022-12-09T20:12:06.878Z,22.20
2022-12-09T20:14:40.533Z,23.40
2022-12-09T20:17:14.613Z,23.10
2022-12-09T20:19:45.220Z,25.80
2022-12-09T20:22:15.583Z,26.80
2022-12-09T20:24:46.551Z,24.00
2022-12-09T20:27:17.656Z,25.10
2022-12-09T20:29:48.269Z,23.50
2022-12-09T20:32:19.252Z,22.50
2022-12-09T20:34:51.333Z,27.90
2022-12-09T20:37:21.972Z,26.70
2022-12-09T20:39:53.725Z,22.10
2022-12-09T20:42:24.495Z,24.20
2022-12-09T20:44:55.545Z,26.60
2022-12-09T20:47:26.368Z,26.40
2022-12-09T20:49:56.794Z,29.60
2022-12-09T20:52:27.223Z,26.10
2022-12-09T20:55:12.704Z,35.20
2022-12-09T20:58:28.170Z,26.20
2022-12-09T21:01:29.668Z,25.00
2022-12-09T21:04:33.653Z,25.80
2022-12-09T21:07:27.324Z,23.90
2022-12-09T21:10:03.786Z,33.80
2022-12-09T21:12:37.825Z,28.30
2022-12-09T21:15:50.389Z,28.60
2022-12-09T21:18:32.747Z,29.30
2022-12-09T21:21:41.486Z,30.30
2022-12-09T21:24:35.144Z,31.50
2022-12-09T21:27:28.126Z,26.10
2022-12-09T21:30:03.347Z,34.60
2022-12-09T21:32:55.664Z,30.00
2022-12-09T21:39:05.451Z,27.60
2022-12-09T21:42:13.920Z,32.90
2022-12-09T21:45:21.849Z,27.20
2022-12-09T21:47:56.017Z,30.60
2022-12-09T21:50:55.272Z,28.40
2022-12-09T21:53:25.842Z,25.50
2022-12-09T21:56:24.395Z,28.40
2022-12-09T21:59:04.066Z,27.20
2022-12-09T22:01:45.383Z,30.20
2022-12-09T22:04:39.662Z,32.30
2022-12-09T22:07:25.069Z,30.20
2022-12-09T22:10:27.624Z,30.10
2022-12-09T22:13:29.473Z,31.70
2022-12-09T22:16:25.343Z,28.30
2022-12-09T22:19:25.992Z,20.70
2022-12-09T22:22:20.790Z,28.90
2022-12-09T22:25:20.130Z,26.70
2022-12-09T22:28:16.813Z,26.60
2022-12-09T22:31:13.254Z,24.40
2022-12-09T22:34:08.543Z,25.00
2022-12-09T22:37:21.057Z,27.30
2022-12-09T22:39:54.997Z,27.50
2022-12-09T22:42:30.018Z,26.50
2022-12-09T22:45:22.683Z,24.80
2022-12-09T22:48:16.894Z,26.30
2022-12-09T22:51:13.048Z,29.30
2022-12-09T22:53:57.986Z,32.40
2022-12-09T22:57:19.152Z,29.40
2022-12-09T23:00:15.887Z,29.60
2022-12-09T23:03:07.412Z,35.40
2022-12-09T23:05:40.612Z,30.90
2022-12-09T23:08:33.863Z,32.30
2022-12-09T23:11:17.815Z,24.10
2022-12-09T23:14:12.506Z,31.70
2022-12-09T23:17:03.914Z,26.70
2022-12-09T23:19:37.805Z,34.00
2022-12-09T23:22:30.084Z,32.50
2022-12-09T23:25:02.961Z,28.10
2022-12-09T23:27:36.565Z,20.40
2022-12-09T23:30:43.276Z,30.50
2022-12-09T23:33:15.134Z,31.30
2022-12-09T23:35:46.071Z,28.30
2022-12-09T23:38:39.219Z,24.60
2022-12-09T23:41:43.214Z,33.50
2022-12-09T23:44:34.043Z,26.10
2022-12-09T23:47:29.692Z,22.20
2022-12-09T23:50:21.410Z,25.70
2022-12-09T23:53:12.864Z,26.60
2022-12-09T23:55:52.468Z,31.90
2022-12-09T23:58:48.845Z,27.20
